sensor_id;sensor_type;location;lat;lon;timestamp;pressure;altitude;pressure_sealevel;temperature;humidity
62420;BME280;48460;51.616;5.426;2023-02-18T00:01:44;102107.16;;;10.02;100.00
62420;BME280;48460;51.616;5.426;2023-02-18T00:04:10;102095.94;;;9.96;100.00
62420;BME280;48460;51.616;5.426;2023-02-18T00:06:38;102088.03;;;9.97;100.00
62420;BME280;48460;51.616;5.426;2023-02-18T00:09:04;102102.00;;;9.99;100.00
62420;BME280;48460;51.616;5.426;2023-02-18T00:11:34;102099.41;;;9.98;100.00
62420;BME280;48460;51.616;5.426;2023-02-18T00:14:07;102102.00;;;9.99;100.00
62420;BME280;48460;51.616;5.426;2023-02-18T00:16:39;102088.13;;;9.94;100.00
62420;BME280;48460;51.616;5.426;2023-02-18T00:19:07;102100.31;;;9.97;100.00
62420;BME280;48460;51.616;5.426;2023-02-18T00:21:34;102093.31;;;9.96;100.00
62420;BME280;48460;51.616;5.426;2023-02-18T00:24:04;102088.06;;;9.96;100.00
62420;BME280;48460;51.616;5.426;2023-02-18T00:26:41;102087.19;;;9.95;100.00
62420;BME280;48460;51.616;5.426;2023-02-18T00:29:09;102081.19;;;9.92;100.00
62420;BME280;48460;51.616;5.426;2023-02-18T00:31:38;102081.13;;;9.93;100.00
62420;BME280;48460;51.616;5.426;2023-02-18T00:34:06;102086.25;;;9.98;100.00
62420;BME280;48460;51.616;5.426;2023-02-18T00:36:34;102068.91;;;9.92;100.00
62420;BME280;48460;51.616;5.426;2023-02-18T00:39:01;102074.03;;;9.97;100.00
62420;BME280;48460;51.616;5.426;2023-02-18T00:41:30;102066.25;;;9.94;100.00
62420;BME280;48460;51.616;5.426;2023-02-18T00:43:58;102067.03;;;9.96;100.00
62420;BME280;48460;51.616;5.426;2023-02-18T00:46:37;102057.47;;;9.93;100.00
62420;BME280;48460;51.616;5.426;2023-02-18T00:49:03;102057.47;;;9.93;100.00
62420;BME280;48460;51.616;5.426;2023-02-18T00:51:30;102044.41;;;9.92;100.00
62420;BME280;48460;51.616;5.426;2023-02-18T00:53:55;102054.06;;;9.91;100.00
62420;BME280;48460;51.616;5.426;2023-02-18T00:56:21;102053.13;;;9.92;100.00
62420;BME280;48460;51.616;5.426;2023-02-18T00:58:47;102047.78;;;9.95;100.00
62420;BME280;48460;51.616;5.426;2023-02-18T01:01:18;102049.66;;;9.92;100.00
62420;BME280;48460;51.616;5.426;2023-02-18T01:03:47;102059.03;;;10.00;100.00
62420;BME280;48460;51.616;5.426;2023-02-18T01:06:13;102049.19;;;10.07;100.00
62420;BME280;48460;51.616;5.426;2023-02-18T01:08:41;102033.56;;;10.02;100.00
62420;BME280;48460;51.616;5.426;2023-02-18T01:11:12;102039.81;;;9.98;100.00
62420;BME280;48460;51.616;5.426;2023-02-18T01:13:40;102033.59;;;10.01;100.00
62420;BME280;48460;51.616;5.426;2023-02-18T01:16:10;102038.03;;;9.99;100.00
62420;BME280;48460;51.616;5.426;2023-02-18T01:18:38;102030.22;;;9.97;100.00
62420;BME280;48460;51.616;5.426;2023-02-18T01:21:05;102017.16;;;9.94;100.00
62420;BME280;48460;51.616;5.426;2023-02-18T01:23:35;102016.34;;;9.92;100.00
62420;BME280;48460;51.616;5.426;2023-02-18T01:26:04;102009.47;;;9.88;100.00
62420;BME280;48460;51.616;5.426;2023-02-18T01:28:32;102022.50;;;9.91;100.00
62420;BME280;48460;51.616;5.426;2023-02-18T01:31:15;102026.91;;;9.91;100.00
62420;BME280;48460;51.616;5.426;2023-02-18T01:33:43;102033.97;;;9.89;100.00
62420;BME280;48460;51.616;5.426;2023-02-18T01:36:10;102034.00;;;9.87;100.00
62420;BME280;48460;51.616;5.426;2023-02-18T01:38:43;102029.63;;;9.88;100.00
62420;BME280;48460;51.616;5.426;2023-02-18T01:41:08;102034.81;;;9.91;100.00
62420;BME280;48460;51.616;5.426;2023-02-18T01:43:35;102025.34;;;9.85;100.00
62420;BME280;48460;51.616;5.426;2023-02-18T01:48:58;102028.00;;;9.84;100.00
62420;BME280;48460;51.616;5.426;2023-02-18T01:51:34;102027.31;;;9.77;100.00
62420;BME280;48460;51.616;5.426;2023-02-18T01:54:05;102011.75;;;9.71;100.00
62420;BME280;48460;51.616;5.426;2023-02-18T01:56:34;102018.69;;;9.73;100.00
62420;BME280;48460;51.616;5.426;2023-02-18T01:59:09;102014.41;;;9.69;100.00
62420;BME280;48460;51.616;5.426;2023-02-18T02:01:36;102007.25;;;9.74;100.00
62420;BME280;48460;51.616;5.426;2023-02-18T02:04:05;102009.13;;;9.71;100.00
62420;BME280;48460;51.616;5.426;2023-02-18T02:06:41;102013.50;;;9.70;100.00
62420;BME280;48460;51.616;5.426;2023-02-18T02:09:12;102017.03;;;9.69;100.00
62420;BME280;48460;51.616;5.426;2023-02-18T02:17:34;102003.09;;;9.67;100.00
62420;BME280;48460;51.616;5.426;2023-02-18T02:36:42;101966.81;;;9.50;100.00
62420;BME280;48460;51.616;5.426;2023-02-18T02:39:19;101963.19;;;9.54;100.00
62420;BME280;48460;51.616;5.426;2023-02-18T02:44:54;101957.22;;;9.49;100.00
62420;BME280;48460;51.616;5.426;2023-02-18T02:47:48;101958.00;;;9.53;100.00
62420;BME280;48460;51.616;5.426;2023-02-18T02:50:26;101946.81;;;9.46;100.00
62420;BME280;48460;51.616;5.426;2023-02-18T02:52:59;101953.75;;;9.49;100.00
62420;BME280;48460;51.616;5.426;2023-02-18T02:55:29;101938.97;;;9.45;100.00
62420;BME280;48460;51.616;5.426;2023-02-18T02:57:57;101938.03;;;9.47;100.00
62420;BME280;48460;51.616;5.426;2023-02-18T03:03:53;101926.00;;;9.40;100.00
62420;BME280;48460;51.616;5.426;2023-02-18T03:17:44;101888.78;;;9.26;100.00
62420;BME280;48460;51.616;5.426;2023-02-18T03:20:25;101873.03;;;9.26;100.00
62420;BME280;48460;51.616;5.426;2023-02-18T03:22:53;101868.69;;;9.25;100.00
62420;BME280;48460;51.616;5.426;2023-02-18T03:25:23;101873.06;;;9.24;100.00
62420;BME280;48460;51.616;5.426;2023-02-18T03:27:56;101847.88;;;9.19;100.00
62420;BME280;48460;51.616;5.426;2023-02-18T03:30:30;101857.38;;;9.23;100.00
62420;BME280;48460;51.616;5.426;2023-02-18T03:33:03;101841.81;;;9.17;100.00
62420;BME280;48460;51.616;5.426;2023-02-18T03:35:34;101852.25;;;9.18;100.00
62420;BME280;48460;51.616;5.426;2023-02-18T03:38:14;101840.91;;;9.18;100.00
62420;BME280;48460;51.616;5.426;2023-02-18T03:40:46;101849.59;;;9.20;100.00
62420;BME280;48460;51.616;5.426;2023-02-18T03:43:15;101838.41;;;9.13;100.00
62420;BME280;48460;51.616;5.426;2023-02-18T03:46:01;101829.50;;;9.19;100.00
62420;BME280;48460;51.616;5.426;2023-02-18T03:48:27;101838.16;;;9.22;100.00
62420;BME280;48460;51.616;5.426;2023-02-18T03:50:55;101831.25;;;9.18;100.00
62420;BME280;48460;51.616;5.426;2023-02-18T03:53:23;101823.56;;;9.12;100.00
62420;BME280;48460;51.616;5.426;2023-02-18T03:55:50;101820.03;;;9.13;100.00
62420;BME280;48460;51.616;5.426;2023-02-18T03:58:23;101819.25;;;9.11;100.00
62420;BME280;48460;51.616;5.426;2023-02-18T04:00:54;101824.59;;;9.08;100.00
62420;BME280;48460;51.616;5.426;2023-02-18T04:03:27;101822.66;;;9.13;100.00
62420;BME280;48460;51.616;5.426;2023-02-18T04:06:07;101810.34;;;9.15;100.00
62420;BME280;48460;51.616;5.426;2023-02-18T04:08:35;101815.72;;;9.12;100.00
62420;BME280;48460;51.616;5.426;2023-02-18T04:11:13;101807.09;;;9.07;100.00
62420;BME280;48460;51.616;5.426;2023-02-18T04:13:43;101814.00;;;9.11;100.00
62420;BME280;48460;51.616;5.426;2023-02-18T04:16:09;101805.31;;;9.09;100.00
62420;BME280;48460;51.616;5.426;2023-02-18T04:18:40;101799.31;;;9.04;100.00
62420;BME280;48460;51.616;5.426;2023-02-18T04:21:08;101789.81;;;9.01;100.00
62420;BME280;48460;51.616;5.426;2023-02-18T04:23:33;101801.81;;;9.08;100.00
62420;BME280;48460;51.616;5.426;2023-02-18T04:26:01;101794.88;;;9.07;100.00
62420;BME280;48460;51.616;5.426;2023-02-18T04:28:28;101794.81;;;9.09;100.00
62420;BME280;48460;51.616;5.426;2023-02-18T04:30:54;101797.44;;;9.09;100.00
62420;BME280;48460;51.616;5.426;2023-02-18T04:33:28;101782.78;;;9.02;100.00
62420;BME280;48460;51.616;5.426;2023-02-18T04:35:59;101786.25;;;9.02;100.00
62420;BME280;48460;51.616;5.426;2023-02-18T04:38:52;101784.56;;;9.01;100.00
62420;BME280;48460;51.616;5.426;2023-02-18T04:41:28;101782.09;;;8.95;100.00
62420;BME280;48460;51.616;5.426;2023-02-18T04:43:56;101783.84;;;8.95;100.00
62420;BME280;48460;51.616;5.426;2023-02-18T04:46:24;101784.50;;;9.03;100.00
62420;BME280;48460;51.616;5.426;2023-02-18T04:48:57;101785.59;;;8.96;100.00
62420;BME280;48460;51.616;5.426;2023-02-18T04:51:23;101799.50;;;8.98;100.00
62420;BME280;48460;51.616;5.426;2023-02-18T04:53:50;101789.94;;;8.97;100.00
62420;BME280;48460;51.616;5.426;2023-02-18T04:56:19;101792.50;;;8.98;100.00
62420;BME280;48460;51.616;5.426;2023-02-18T04:58:54;101774.38;;;8.90;100.00
62420;BME280;48460;51.616;5.426;2023-02-18T05:01:22;101791.69;;;8.96;100.00
62420;BME280;48460;51.616;5.426;2023-02-18T05:03:47;101780.38;;;8.94;100.00
62420;BME280;48460;51.616;5.426;2023-02-18T05:06:18;101774.22;;;8.95;100.00
62420;BME280;48460;51.616;5.426;2023-02-18T05:08:45;101766.59;;;8.87;100.00
62420;BME280;48460;51.616;5.426;2023-02-18T05:11:13;101773.38;;;8.95;100.00
62420;BME280;48460;51.616;5.426;2023-02-18T05:13:39;101755.16;;;8.90;100.00
62420;BME280;48460;51.616;5.426;2023-02-18T05:16:10;101763.88;;;8.90;100.00
62420;BME280;48460;51.616;5.426;2023-02-18T05:18:35;101755.34;;;8.84;100.00
62420;BME280;48460;51.616;5.426;2023-02-18T05:21:08;101756.97;;;8.88;100.00
62420;BME280;48460;51.616;5.426;2023-02-18T05:23:45;101766.31;;;8.97;100.00
62420;BME280;48460;51.616;5.426;2023-02-18T05:26:24;101739.53;;;8.87;100.00
62420;BME280;48460;51.616;5.426;2023-02-18T05:29:04;101753.50;;;8.87;100.00
62420;BME280;48460;51.616;5.426;2023-02-18T05:31:56;101751.53;;;8.94;100.00
62420;BME280;48460;51.616;5.426;2023-02-18T05:34:24;101759.75;;;8.83;100.00
62420;BME280;48460;51.616;5.426;2023-02-18T05:36:52;101754.50;;;8.83;100.00
62420;BME280;48460;51.616;5.426;2023-02-18T05:39:42;101751.88;;;8.83;100.00
62420;BME280;48460;51.616;5.426;2023-02-18T05:42:34;101746.44;;;8.89;100.00
62420;BME280;48460;51.616;5.426;2023-02-18T05:45:02;101743.94;;;8.85;100.00
62420;BME280;48460;51.616;5.426;2023-02-18T05:47:40;101747.28;;;8.90;100.00
62420;BME280;48460;51.616;5.426;2023-02-18T05:50:10;101747.88;;;8.98;100.00
62420;BME280;48460;51.616;5.426;2023-02-18T05:52:36;101731.75;;;8.84;100.00
62420;BME280;48460;51.616;5.426;2023-02-18T05:55:18;101741.19;;;8.89;100.00
62420;BME280;48460;51.616;5.426;2023-02-18T05:57:44;101716.09;;;8.81;100.00
62420;BME280;48460;51.616;5.426;2023-02-18T06:00:15;101711.75;;;8.80;100.00
62420;BME280;48460;51.616;5.426;2023-02-18T06:02:45;101719.38;;;8.87;100.00
62420;BME280;48460;51.616;5.426;2023-02-18T06:05:14;101721.16;;;8.87;100.00
62420;BME280;48460;51.616;5.426;2023-02-18T06:08:08;101715.09;;;8.85;100.00
62420;BME280;48460;51.616;5.426;2023-02-18T06:14:02;101714.28;;;8.83;100.00
62420;BME280;48460;51.616;5.426;2023-02-18T06:16:46;101702.09;;;8.80;100.00
62420;BME280;48460;51.616;5.426;2023-02-18T06:19:16;101703.84;;;8.81;100.00
62420;BME280;48460;51.616;5.426;2023-02-18T06:28:18;101717.69;;;8.86;100.00
62420;BME280;48460;51.616;5.426;2023-02-18T06:30:49;101704.78;;;8.79;100.00
62420;BME280;48460;51.616;5.426;2023-02-18T06:33:20;101695.91;;;8.83;100.00
62420;BME280;48460;51.616;5.426;2023-02-18T06:36:07;101710.47;;;8.93;100.00
62420;BME280;48460;51.616;5.426;2023-02-18T06:38:44;101712.56;;;8.82;100.00
62420;BME280;48460;51.616;5.426;2023-02-18T06:41:15;101714.28;;;8.83;100.00
62420;BME280;48460;51.616;5.426;2023-02-18T06:43:45;101699.44;;;8.82;100.00
62420;BME280;48460;51.616;5.426;2023-02-18T06:46:21;101718.53;;;8.87;100.00
62420;BME280;48460;51.616;5.426;2023-02-18T06:59:00;101715.75;;;8.92;100.00
62420;BME280;48460;51.616;5.426;2023-02-18T07:01:38;101704.72;;;8.80;100.00
62420;BME280;48460;51.616;5.426;2023-02-18T07:04:06;101715.47;;;8.73;100.00
62420;BME280;48460;51.616;5.426;2023-02-18T07:06:33;101739.81;;;8.78;100.00
62420;BME280;48460;51.616;5.426;2023-02-18T07:08:59;101714.63;;;8.72;100.00
62420;BME280;48460;51.616;5.426;2023-02-18T07:11:29;101712.31;;;8.61;100.00
62420;BME280;48460;51.616;5.426;2023-02-18T07:14:03;101726.97;;;8.69;100.00
62420;BME280;48460;51.616;5.426;2023-02-18T07:16:31;101718.59;;;8.56;100.00
62420;BME280;48460;51.616;5.426;2023-02-18T07:18:56;101723.78;;;8.57;100.00
62420;BME280;48460;51.616;5.426;2023-02-18T07:24:57;101726.31;;;8.60;100.00
62420;BME280;48460;51.616;5.426;2023-02-18T07:27:30;101718.91;;;8.45;100.00
62420;BME280;48460;51.616;5.426;2023-02-18T07:40:49;101755.69;;;8.42;100.00
62420;BME280;48460;51.616;5.426;2023-02-18T07:43:35;101741.09;;;8.32;100.00
62420;BME280;48460;51.616;5.426;2023-02-18T07:46:05;101738.56;;;8.29;100.00
62420;BME280;48460;51.616;5.426;2023-02-18T07:48:36;101737.50;;;8.36;100.00
62420;BME280;48460;51.616;5.426;2023-02-18T07:51:09;101760.03;;;8.43;100.00
62420;BME280;48460;51.616;5.426;2023-02-18T07:53:35;101747.88;;;8.40;100.00
62420;BME280;48460;51.616;5.426;2023-02-18T07:56:05;101726.06;;;8.38;100.00
62420;BME280;48460;51.616;5.426;2023-02-18T07:58:35;101737.19;;;8.47;100.00
62420;BME280;48460;51.616;5.426;2023-02-18T08:01:30;101749.25;;;8.54;100.00
62420;BME280;48460;51.616;5.426;2023-02-18T08:04:14;101742.84;;;8.62;100.00
62420;BME280;48460;51.616;5.426;2023-02-18T08:06:42;101743.03;;;8.56;100.00
62420;BME280;48460;51.616;5.426;2023-02-18T08:09:12;101730.84;;;8.55;100.00
62420;BME280;48460;51.616;5.426;2023-02-18T08:11:41;101737.66;;;8.61;100.00
62420;BME280;48460;51.616;5.426;2023-02-18T08:14:10;101747.03;;;8.70;100.00
62420;BME280;48460;51.616;5.426;2023-02-18T08:16:49;101740.09;;;8.67;100.00
62420;BME280;48460;51.616;5.426;2023-02-18T08:19:15;101746.00;;;8.75;100.00
62420;BME280;48460;51.616;5.426;2023-02-18T08:22:04;101737.19;;;8.78;100.00
62420;BME280;48460;51.616;5.426;2023-02-18T08:24:33;101736.91;;;8.87;100.00
62420;BME280;48460;51.616;5.426;2023-02-18T08:26:59;101746.19;;;8.97;100.00
62420;BME280;48460;51.616;5.426;2023-02-18T08:29:29;101744.38;;;8.99;100.00
62420;BME280;48460;51.616;5.426;2023-02-18T08:31:58;101735.66;;;8.99;100.00
62420;BME280;48460;51.616;5.426;2023-02-18T08:34:26;101738.03;;;9.06;100.00
62420;BME280;48460;51.616;5.426;2023-02-18T08:36:56;101734.53;;;9.07;100.00
62420;BME280;48460;51.616;5.426;2023-02-18T08:39:23;101742.28;;;9.10;100.00
62420;BME280;48460;51.616;5.426;2023-02-18T08:41:48;101739.91;;;9.03;100.00
62420;BME280;48460;51.616;5.426;2023-02-18T08:44:18;101742.72;;;8.97;100.00
62420;BME280;48460;51.616;5.426;2023-02-18T08:46:54;101749.75;;;8.95;100.00
62420;BME280;48460;51.616;5.426;2023-02-18T08:49:25;101755.72;;;9.00;100.00
62420;BME280;48460;51.616;5.426;2023-02-18T08:51:57;101764.81;;;8.89;100.00
62420;BME280;48460;51.616;5.426;2023-02-18T08:54:26;101762.03;;;8.94;100.00
62420;BME280;48460;51.616;5.426;2023-02-18T08:56:54;101759.50;;;8.91;100.00
62420;BME280;48460;51.616;5.426;2023-02-18T08:59:22;101764.72;;;8.93;100.00
62420;BME280;48460;51.616;5.426;2023-02-18T09:01:48;101755.94;;;8.92;100.00
62420;BME280;48460;51.616;5.426;2023-02-18T09:04:20;101769.88;;;8.94;100.00
62420;BME280;48460;51.616;5.426;2023-02-18T09:06:46;101751.78;;;8.86;100.00
62420;BME280;48460;51.616;5.426;2023-02-18T09:09:15;101750.91;;;8.86;100.00
62420;BME280;48460;51.616;5.426;2023-02-18T09:11:40;101754.75;;;8.74;100.00
62420;BME280;48460;51.616;5.426;2023-02-18T09:14:06;101764.44;;;8.72;100.00
62420;BME280;48460;51.616;5.426;2023-02-18T09:16:32;101780.88;;;8.77;100.00
62420;BME280;48460;51.616;5.426;2023-02-18T09:19:03;101758.50;;;8.65;100.00
62420;BME280;48460;51.616;5.426;2023-02-18T09:21:35;101752.47;;;8.62;100.00
62420;BME280;48460;51.616;5.426;2023-02-18T09:24:17;101744.41;;;8.70;100.00
62420;BME280;48460;51.616;5.426;2023-02-18T09:26:45;101759.28;;;8.69;100.00
62420;BME280;48460;51.616;5.426;2023-02-18T09:29:13;101755.97;;;8.62;100.00
62420;BME280;48460;51.616;5.426;2023-02-18T09:31:51;101760.31;;;8.63;100.00
62420;BME280;48460;51.616;5.426;2023-02-18T09:34:21;101756.66;;;8.69;100.00
62420;BME280;48460;51.616;5.426;2023-02-18T09:36:46;101749.75;;;8.66;100.00
62420;BME280;48460;51.616;5.426;2023-02-18T09:39:14;101770.56;;;8.71;100.00
62420;BME280;48460;51.616;5.426;2023-02-18T09:41:47;101754.16;;;8.64;100.00
62420;BME280;48460;51.616;5.426;2023-02-18T09:44:28;101774.84;;;8.75;100.00
62420;BME280;48460;51.616;5.426;2023-02-18T09:46:58;101771.88;;;8.86;100.00
62420;BME280;48460;51.616;5.426;2023-02-18T09:49:29;101767.50;;;8.86;100.00
62420;BME280;48460;51.616;5.426;2023-02-18T09:52:17;101767.38;;;8.91;100.00
62420;BME280;48460;51.616;5.426;2023-02-18T09:54:51;101769.97;;;8.91;100.00
62420;BME280;48460;51.616;5.426;2023-02-18T10:00:11;101769.69;;;9.00;100.00
62420;BME280;48460;51.616;5.426;2023-02-18T10:02:58;101778.59;;;8.96;100.00
62420;BME280;48460;51.616;5.426;2023-02-18T10:05:35;101770.63;;;8.99;100.00
62420;BME280;48460;51.616;5.426;2023-02-18T10:08:33;101767.91;;;9.02;100.00
62420;BME280;48460;51.616;5.426;2023-02-18T10:11:34;101783.25;;;9.15;100.00
62420;BME280;48460;51.616;5.426;2023-02-18T10:14:10;101769.91;;;9.22;100.00
62420;BME280;48460;51.616;5.426;2023-02-18T10:16:42;101763.03;;;9.18;100.00
62420;BME280;48460;51.616;5.426;2023-02-18T10:19:36;101781.16;;;9.26;100.00
62420;BME280;48460;51.616;5.426;2023-02-18T10:22:07;101783.78;;;9.26;100.00
62420;BME280;48460;51.616;5.426;2023-02-18T10:27:31;101784.66;;;9.26;100.00
62420;BME280;48460;51.616;5.426;2023-02-18T10:32:45;101818.47;;;9.35;100.00
62420;BME280;48460;51.616;5.426;2023-02-18T10:35:50;101808.94;;;9.33;100.00
62420;BME280;48460;51.616;5.426;2023-02-18T10:38:24;101805.56;;;9.29;100.00
62420;BME280;48460;51.616;5.426;2023-02-18T10:47:38;101824.41;;;9.42;100.00
62420;BME280;48460;51.616;5.426;2023-02-18T10:52:49;101825.53;;;9.33;100.00
62420;BME280;48460;51.616;5.426;2023-02-18T10:55:33;101827.38;;;9.31;100.00
62420;BME280;48460;51.616;5.426;2023-02-18T10:58:02;101836.19;;;9.29;100.00
62420;BME280;48460;51.616;5.426;2023-02-18T11:00:38;101832.13;;;9.19;100.00
62420;BME280;48460;51.616;5.426;2023-02-18T11:03:22;101826.94;;;9.17;100.00
62420;BME280;48460;51.616;5.426;2023-02-18T11:05:53;101831.41;;;9.13;100.00
62420;BME280;48460;51.616;5.426;2023-02-18T11:08:22;101814.84;;;9.11;100.00
62420;BME280;48460;51.616;5.426;2023-02-18T11:10:52;101821.78;;;9.14;100.00
62420;BME280;48460;51.616;5.426;2023-02-18T11:13:26;101829.31;;;9.25;100.00
62420;BME280;48460;51.616;5.426;2023-02-18T11:18:52;101837.06;;;9.29;100.00
62420;BME280;48460;51.616;5.426;2023-02-18T11:21:29;101831.56;;;9.37;100.00
62420;BME280;48460;51.616;5.426;2023-02-18T11:24:15;101823.84;;;9.32;100.00
62420;BME280;48460;51.616;5.426;2023-02-18T11:26:48;101833.00;;;9.47;100.00
62420;BME280;48460;51.616;5.426;2023-02-18T11:29:23;101822.53;;;9.46;100.00
62420;BME280;48460;51.616;5.426;2023-02-18T11:31:59;101820.78;;;9.46;100.00
62420;BME280;48460;51.616;5.426;2023-02-18T11:34:41;101826.88;;;9.47;100.00
62420;BME280;48460;51.616;5.426;2023-02-18T11:37:10;101818.16;;;9.46;100.00
62420;BME280;48460;51.616;5.426;2023-02-18T11:39:41;101826.81;;;9.48;100.00
62420;BME280;48460;51.616;5.426;2023-02-18T11:42:14;101823.22;;;9.52;100.00
62420;BME280;48460;51.616;5.426;2023-02-18T11:45:05;101822.81;;;9.36;100.00
62420;BME280;48460;51.616;5.426;2023-02-18T11:47:36;101827.22;;;9.36;100.00
62420;BME280;48460;51.616;5.426;2023-02-18T11:50:22;101827.09;;;9.41;100.00
62420;BME280;48460;51.616;5.426;2023-02-18T11:53:01;101813.97;;;9.41;100.00
62420;BME280;48460;51.616;5.426;2023-02-18T11:55:55;101814.63;;;9.47;100.00
62420;BME280;48460;51.616;5.426;2023-02-18T11:58:23;101811.97;;;9.49;100.00
62420;BME280;48460;51.616;5.426;2023-02-18T12:00:55;101813.41;;;9.57;100.00
62420;BME280;48460;51.616;5.426;2023-02-18T12:03:46;101813.13;;;9.67;100.00
62420;BME280;48460;51.616;5.426;2023-02-18T12:06:22;101809.78;;;9.88;100.00
62420;BME280;48460;51.616;5.426;2023-02-18T12:09:11;101803.66;;;10.14;100.00
62420;BME280;48460;51.616;5.426;2023-02-18T12:11:47;101809.97;;;10.35;100.00
62420;BME280;48460;51.616;5.426;2023-02-18T12:14:20;101802.59;;;10.45;100.00
62420;BME280;48460;51.616;5.426;2023-02-18T12:22:44;101798.09;;;10.72;100.00
62420;BME280;48460;51.616;5.426;2023-02-18T12:42:07;101796.94;;;10.79;100.00
62420;BME280;48460;51.616;5.426;2023-02-18T12:49:57;101790.88;;;10.77;100.00
62420;BME280;48460;51.616;5.426;2023-02-18T12:52:40;101823.34;;;11.00;100.00
62420;BME280;48460;51.616;5.426;2023-02-18T12:58:11;101799.91;;;10.70;100.00
62420;BME280;48460;51.616;5.426;2023-02-18T13:03:18;101812.16;;;10.71;100.00
62420;BME280;48460;51.616;5.426;2023-02-18T13:06:00;101792.63;;;10.77;100.00
62420;BME280;48460;51.616;5.426;2023-02-18T13:11:33;101795.00;;;10.84;100.00
62420;BME280;48460;51.616;5.426;2023-02-18T13:14:16;101811.34;;;10.92;100.00
62420;BME280;48460;51.616;5.426;2023-02-18T13:16:48;101799.09;;;10.91;100.00
62420;BME280;48460;51.616;5.426;2023-02-18T13:19:29;101814.09;;;10.89;100.00
62420;BME280;48460;51.616;5.426;2023-02-18T13:22:15;101798.72;;;10.79;100.00
62420;BME280;48460;51.616;5.426;2023-02-18T13:24:54;101796.06;;;10.79;100.00
62420;BME280;48460;51.616;5.426;2023-02-18T13:30:46;101798.66;;;11.04;100.00
62420;BME280;48460;51.616;5.426;2023-02-18T13:37:09;101783.19;;;11.40;100.00
62420;BME280;48460;51.616;5.426;2023-02-18T13:39:49;101785.59;;;11.45;100.00
62420;BME280;48460;51.616;5.426;2023-02-18T13:47:36;101791.97;;;11.39;100.00
62420;BME280;48460;51.616;5.426;2023-02-18T13:52:56;101790.59;;;11.30;100.00
62420;BME280;48460;51.616;5.426;2023-02-18T13:55:32;101796.88;;;11.26;100.00
62420;BME280;48460;51.616;5.426;2023-02-18T13:58:02;101801.00;;;11.33;100.00
62420;BME280;48460;51.616;5.426;2023-02-18T14:00:35;101798.50;;;11.30;100.00
62420;BME280;48460;51.616;5.426;2023-02-18T14:03:36;101791.31;;;11.34;100.00
62420;BME280;48460;51.616;5.426;2023-02-18T14:06:22;101798.78;;;11.45;100.00
62420;BME280;48460;51.616;5.426;2023-02-18T14:09:00;101794.13;;;11.51;100.00
62420;BME280;48460;51.616;5.426;2023-02-18T14:11:38;101805.19;;;11.59;100.00
62420;BME280;48460;51.616;5.426;2023-02-18T14:14:32;101794.91;;;11.53;100.00
62420;BME280;48460;51.616;5.426;2023-02-18T14:25:03;101813.28;;;11.33;100.00
62420;BME280;48460;51.616;5.426;2023-02-18T14:27:31;101816.84;;;11.32;100.00
62420;BME280;48460;51.616;5.426;2023-02-18T14:30:59;101815.91;;;11.33;100.00
62420;BME280;48460;51.616;5.426;2023-02-18T14:33:03;101798.50;;;11.30;100.00
62420;BME280;48460;51.616;5.426;2023-02-18T14:35:46;101813.84;;;11.41;100.00
62420;BME280;48460;51.616;5.426;2023-02-18T14:44:18;101808.34;;;11.47;100.00
62420;BME280;48460;51.616;5.426;2023-02-18T14:49:58;101809.25;;;11.46;100.00
62420;BME280;48460;51.616;5.426;2023-02-18T14:54:55;101812.38;;;11.56;100.00
62420;BME280;48460;51.616;5.426;2023-02-18T14:57:31;101811.22;;;11.63;100.00
62420;BME280;48460;51.616;5.426;2023-02-18T15:00:00;101807.66;;;11.64;100.00
62420;BME280;48460;51.616;5.426;2023-02-18T15:02:34;101792.09;;;11.58;100.00
62420;BME280;48460;51.616;5.426;2023-02-18T15:05:17;101801.66;;;11.60;100.00
62420;BME280;48460;51.616;5.426;2023-02-18T15:08:03;101803.75;;;11.52;100.00
62420;BME280;48460;51.616;5.426;2023-02-18T15:10:42;101801.78;;;11.35;100.00
62420;BME280;48460;51.616;5.426;2023-02-18T15:13:20;101803.41;;;11.39;100.00
62420;BME280;48460;51.616;5.426;2023-02-18T15:15:55;101800.19;;;11.31;100.00
62420;BME280;48460;51.616;5.426;2023-02-18T15:18:37;101814.22;;;11.32;100.00
62420;BME280;48460;51.616;5.426;2023-02-18T15:21:27;101811.59;;;11.32;100.00
62420;BME280;48460;51.616;5.426;2023-02-18T15:24:10;101804.66;;;11.29;100.00
62420;BME280;48460;51.616;5.426;2023-02-18T15:26:48;101802.50;;;11.17;100.00
62420;BME280;48460;51.616;5.426;2023-02-18T15:33:08;101813.91;;;11.17;100.00
62420;BME280;48460;51.616;5.426;2023-02-18T15:38:34;101807.97;;;11.12;100.00
62420;BME280;48460;51.616;5.426;2023-02-18T15:41:15;101794.03;;;11.09;100.00
62420;BME280;48460;51.616;5.426;2023-02-18T15:44:02;101802.88;;;11.08;100.00
62420;BME280;48460;51.616;5.426;2023-02-18T15:46:28;101787.94;;;11.08;100.00
62420;BME280;48460;51.616;5.426;2023-02-18T15:48:55;101793.28;;;11.07;100.00
62420;BME280;48460;51.616;5.426;2023-02-18T15:51:29;101791.41;;;11.09;100.00
62420;BME280;48460;51.616;5.426;2023-02-18T15:54:00;101797.53;;;11.09;100.00
62420;BME280;48460;51.616;5.426;2023-02-18T15:56:36;101785.28;;;11.08;100.00
62420;BME280;48460;51.616;5.426;2023-02-18T15:59:18;101779.53;;;10.99;100.00
62420;BME280;48460;51.616;5.426;2023-02-18T16:01:49;101795.91;;;11.07;100.00
62420;BME280;48460;51.616;5.426;2023-02-18T16:04:22;101787.56;;;10.95;100.00
62420;BME280;48460;51.616;5.426;2023-02-18T16:06:52;101791.84;;;10.98;100.00
62420;BME280;48460;51.616;5.426;2023-02-18T16:09:29;101799.66;;;11.00;100.00
62420;BME280;48460;51.616;5.426;2023-02-18T16:12:01;101799.06;;;10.93;100.00
62420;BME280;48460;51.616;5.426;2023-02-18T16:14:47;101803.38;;;10.94;100.00
62420;BME280;48460;51.616;5.426;2023-02-18T16:17:23;101781.78;;;10.86;100.00